createdAt,value
2022-10-26T00:00:38.480Z,6.10
2022-10-26T00:03:26.414Z,6.10
2022-10-26T00:06:16.332Z,6.00
2022-10-26T00:09:04.406Z,6.00
2022-10-26T00:11:53.258Z,6.00
2022-10-26T00:14:40.990Z,6.00
2022-10-26T00:17:30.383Z,6.00
2022-10-26T00:20:18.281Z,5.90
2022-10-26T00:23:05.887Z,5.90
2022-10-26T00:25:56.589Z,5.80
2022-10-26T00:28:44.416Z,5.80
2022-10-26T00:31:32.710Z,5.80
2022-10-26T00:34:21.892Z,5.70
2022-10-26T00:37:09.740Z,5.70
2022-10-26T00:39:57.329Z,5.70
2022-10-26T00:42:45.264Z,5.70
2022-10-26T00:45:33.424Z,5.70
2022-10-26T00:48:27.274Z,5.70
2022-10-26T00:51:23.308Z,5.70
2022-10-26T00:54:14.038Z,5.70
2022-10-26T00:57:01.892Z,5.70
2022-10-26T00:59:50.047Z,5.60
2022-10-26T01:02:37.945Z,5.60
2022-10-26T01:05:26.096Z,5.60
2022-10-26T01:08:16.995Z,5.60
2022-10-26T01:11:05.649Z,5.60
2022-10-26T01:13:55.983Z,5.50
2022-10-26T01:16:57.379Z,5.50
2022-10-26T01:20:20.373Z,5.50
2022-10-26T01:23:13.747Z,5.50
2022-10-26T01:26:19.296Z,5.50
2022-10-26T01:29:27.270Z,5.40
2022-10-26T01:32:24.646Z,5.40
2022-10-26T01:35:17.491Z,5.30
2022-10-26T01:38:09.735Z,5.30
2022-10-26T01:41:05.100Z,5.30
2022-10-26T01:43:56.781Z,5.30
2022-10-26T01:46:48.601Z,5.20
2022-10-26T01:49:42.643Z,5.20
2022-10-26T01:52:30.418Z,5.10
2022-10-26T01:55:52.273Z,5.10
2022-10-26T01:59:05.406Z,5.10
2022-10-26T02:02:22.609Z,5.10
2022-10-26T02:05:23.600Z,5.00
2022-10-26T02:08:43.111Z,5.00
2022-10-26T02:11:39.809Z,5.00
2022-10-26T02:14:37.966Z,5.00
2022-10-26T02:17:30.010Z,4.90
2022-10-26T02:20:24.011Z,4.90
2022-10-26T02:23:13.502Z,4.80
2022-10-26T02:26:02.538Z,4.80
2022-10-26T02:28:52.262Z,4.80
2022-10-26T02:31:43.040Z,4.70
2022-10-26T02:34:33.547Z,4.70
2022-10-26T02:37:24.302Z,4.70
2022-10-26T02:40:16.168Z,4.60
2022-10-26T02:43:08.165Z,4.60
2022-10-26T02:46:00.894Z,4.60
2022-10-26T02:48:48.984Z,4.50
2022-10-26T02:51:42.588Z,4.50
2022-10-26T02:54:43.282Z,4.50
2022-10-26T02:57:39.728Z,4.50
2022-10-26T03:00:28.032Z,4.50
2022-10-26T03:03:16.882Z,4.40
2022-10-26T03:06:04.732Z,4.40
2022-10-26T03:08:53.317Z,4.50
2022-10-26T03:11:42.297Z,4.50
2022-10-26T03:14:30.161Z,4.50
2022-10-26T03:17:17.706Z,4.50
2022-10-26T03:20:06.101Z,4.40
2022-10-26T03:22:53.696Z,4.40
2022-10-26T03:25:41.468Z,4.40
2022-10-26T03:28:30.676Z,4.40
2022-10-26T03:31:18.363Z,4.40
2022-10-26T03:34:06.113Z,4.30
2022-10-26T03:36:53.474Z,4.30
2022-10-26T03:39:41.367Z,4.30
2022-10-26T03:42:28.928Z,4.30
2022-10-26T03:45:18.308Z,4.30
2022-10-26T03:48:06.687Z,4.30
2022-10-26T03:50:58.248Z,4.30
2022-10-26T03:53:45.891Z,4.30
2022-10-26T03:56:33.217Z,4.30
2022-10-26T03:59:20.434Z,4.30
2022-10-26T04:02:08.933Z,4.30
2022-10-26T04:04:56.693Z,4.30
2022-10-26T04:07:44.334Z,4.20
2022-10-26T04:10:32.238Z,4.20
2022-10-26T04:13:19.780Z,4.20
2022-10-26T04:16:07.266Z,4.20
2022-10-26T04:18:56.335Z,4.20
2022-10-26T04:21:43.908Z,4.20
2022-10-26T04:24:31.495Z,4.10
2022-10-26T04:27:19.203Z,4.10
2022-10-26T04:30:10.081Z,4.10
2022-10-26T04:32:57.490Z,4.00
2022-10-26T04:35:46.362Z,4.00
2022-10-26T04:38:33.835Z,4.00
2022-10-26T04:41:21.432Z,4.00
2022-10-26T04:44:08.609Z,4.00
2022-10-26T04:46:56.154Z,4.00
2022-10-26T04:49:43.647Z,4.00
2022-10-26T04:52:32.631Z,4.00
2022-10-26T04:55:20.148Z,4.00
2022-10-26T04:58:07.872Z,4.00
2022-10-26T05:00:55.177Z,4.00
2022-10-26T05:03:42.643Z,4.00
2022-10-26T05:06:30.760Z,3.90
2022-10-26T05:09:19.289Z,3.90
2022-10-26T05:12:06.588Z,3.90
2022-10-26T05:14:53.789Z,3.90
2022-10-26T05:17:41.242Z,3.90
2022-10-26T05:20:31.477Z,3.90
2022-10-26T05:23:19.480Z,3.90
2022-10-26T05:26:08.294Z,3.90
2022-10-26T05:28:55.618Z,3.90
2022-10-26T05:31:42.783Z,3.90
2022-10-26T05:34:30.495Z,4.00
2022-10-26T05:37:17.741Z,4.00
2022-10-26T05:40:05.769Z,4.00
2022-10-26T05:42:54.561Z,4.00
2022-10-26T05:45:41.764Z,4.10
2022-10-26T05:48:29.224Z,4.10
2022-10-26T05:51:16.595Z,4.10
2022-10-26T05:54:03.771Z,4.10
2022-10-26T05:56:51.357Z,4.10
2022-10-26T05:59:40.539Z,4.10
2022-10-26T06:02:33.628Z,4.10
2022-10-26T06:05:24.062Z,4.20
2022-10-26T06:08:12.200Z,4.20
2022-10-26T06:11:01.384Z,4.30
2022-10-26T06:13:49.212Z,4.30
2022-10-26T06:16:42.052Z,4.30
2022-10-26T06:19:33.180Z,4.40
2022-10-26T06:22:29.555Z,4.40
2022-10-26T06:25:22.568Z,4.40
2022-10-26T06:28:16.292Z,4.50
2022-10-26T06:31:03.816Z,4.50
2022-10-26T06:33:53.214Z,4.60
2022-10-26T06:36:42.313Z,4.60
2022-10-26T06:39:31.407Z,4.70
2022-10-26T06:42:19.131Z,4.80
2022-10-26T06:45:07.157Z,4.90
2022-10-26T06:48:01.688Z,5.00
2022-10-26T06:50:53.885Z,5.10
2022-10-26T06:53:46.112Z,5.20
2022-10-26T06:56:36.141Z,5.40
2022-10-26T06:59:33.748Z,5.60
2022-10-26T07:02:21.788Z,5.70
2022-10-26T07:05:12.967Z,5.90
2022-10-26T07:08:04.075Z,6.10
2022-10-26T07:10:52.008Z,6.30
2022-10-26T07:13:39.843Z,6.40
2022-10-26T07:16:28.013Z,6.60
2022-10-26T07:19:15.540Z,6.80
2022-10-26T07:22:03.519Z,6.90
2022-10-26T07:24:53.371Z,7.10
2022-10-26T07:27:41.389Z,7.40
2022-10-26T07:30:30.669Z,7.70
2022-10-26T07:33:19.484Z,8.00
2022-10-26T07:36:08.705Z,8.30
2022-10-26T07:38:56.460Z,8.60
2022-10-26T07:41:46.812Z,8.70
2022-10-26T07:44:34.288Z,8.80
2022-10-26T07:47:22.028Z,9.00
2022-10-26T07:50:12.053Z,9.20
2022-10-26T07:53:00.256Z,9.40
2022-10-26T07:55:54.488Z,9.70
2022-10-26T07:58:43.666Z,9.90
2022-10-26T08:01:34.792Z,10.10
2022-10-26T08:04:22.508Z,10.30
2022-10-26T08:07:10.514Z,10.60
2022-10-26T08:09:58.250Z,10.70
2022-10-26T08:12:46.018Z,10.90
2022-10-26T08:15:35.106Z,11.10
2022-10-26T08:18:23.069Z,11.30
2022-10-26T08:21:15.607Z,11.40
2022-10-26T08:24:09.364Z,11.60
2022-10-26T08:26:57.127Z,11.80
2022-10-26T08:29:45.025Z,11.90
2022-10-26T08:32:34.117Z,12.20
2022-10-26T08:35:21.809Z,12.40
2022-10-26T08:38:09.410Z,12.50
2022-10-26T08:40:58.715Z,12.50
2022-10-26T08:43:53.429Z,12.60
2022-10-26T08:46:45.693Z,12.70
2022-10-26T08:49:43.201Z,12.80
2022-10-26T08:52:42.916Z,13.10
2022-10-26T08:55:36.047Z,13.20
2022-10-26T08:58:29.183Z,13.50
2022-10-26T09:01:16.918Z,13.60
2022-10-26T09:04:04.954Z,13.70
2022-10-26T09:06:58.464Z,13.80
2022-10-26T09:09:53.066Z,14.10
2022-10-26T09:12:44.650Z,14.30
2022-10-26T09:15:38.404Z,14.40
2022-10-26T09:18:32.926Z,14.60
2022-10-26T09:21:26.753Z,14.70
2022-10-26T09:24:16.538Z,14.90
2022-10-26T09:27:09.234Z,15.10
2022-10-26T09:29:56.969Z,15.20
2022-10-26T09:32:46.350Z,15.40
2022-10-26T09:35:44.707Z,15.70
2022-10-26T09:38:34.500Z,15.90
2022-10-26T09:41:31.699Z,16.10
2022-10-26T09:44:24.435Z,16.30
2022-10-26T09:47:22.248Z,16.40
2022-10-26T09:50:21.701Z,16.50
2022-10-26T09:53:09.994Z,16.70
2022-10-26T09:56:03.348Z,16.80
2022-10-26T09:58:53.746Z,16.90
2022-10-26T10:01:42.483Z,17.20
2022-10-26T10:04:33.817Z,17.40
2022-10-26T10:07:20.952Z,17.50
2022-10-26T10:10:09.364Z,17.60
2022-10-26T10:12:56.856Z,17.70
2022-10-26T10:15:53.611Z,17.70
2022-10-26T10:18:41.581Z,17.80
2022-10-26T10:21:34.850Z,17.90
2022-10-26T10:24:28.167Z,18.10
2022-10-26T10:27:19.576Z,18.20
2022-10-26T10:30:23.596Z,18.40
2022-10-26T10:33:13.336Z,18.50
2022-10-26T10:36:01.923Z,18.70
2022-10-26T10:38:51.045Z,18.70
2022-10-26T10:41:39.433Z,18.80
2022-10-26T10:44:31.474Z,18.90
2022-10-26T10:47:25.359Z,19.00
2022-10-26T10:50:20.472Z,19.20
2022-10-26T10:53:19.416Z,19.30
2022-10-26T10:56:23.232Z,19.30
2022-10-26T10:59:35.287Z,19.50
2022-10-26T11:02:53.529Z,19.60
2022-10-26T11:06:05.711Z,19.70
2022-10-26T11:08:58.287Z,19.90
2022-10-26T11:11:49.704Z,19.90
2022-10-26T11:14:40.198Z,19.90
2022-10-26T11:17:32.923Z,20.00
2022-10-26T11:20:24.299Z,20.00
2022-10-26T11:23:21.099Z,20.10
2022-10-26T11:26:15.046Z,20.20
2022-10-26T11:29:08.283Z,20.30
2022-10-26T11:32:03.087Z,20.30
2022-10-26T11:34:56.851Z,20.40
2022-10-26T11:37:51.014Z,20.60
2022-10-26T11:40:46.586Z,20.70
2022-10-26T11:43:39.456Z,20.80
2022-10-26T11:46:33.411Z,20.90
2022-10-26T11:49:28.443Z,21.00
2022-10-26T11:52:22.180Z,20.80
2022-10-26T11:55:12.454Z,20.80
2022-10-26T11:58:02.967Z,20.80
2022-10-26T12:00:57.768Z,20.80
2022-10-26T12:03:49.493Z,20.90
2022-10-26T12:06:37.259Z,21.10
2022-10-26T12:09:32.154Z,21.20
2022-10-26T12:12:28.126Z,21.20
2022-10-26T12:15:30.930Z,21.30
2022-10-26T12:18:54.377Z,21.20
2022-10-26T12:21:44.297Z,21.30
2022-10-26T12:24:35.577Z,21.30
2022-10-26T12:27:34.012Z,21.20
2022-10-26T12:30:31.499Z,21.10
2022-10-26T12:33:30.336Z,21.20
2022-10-26T12:36:48.542Z,21.40
2022-10-26T12:39:37.448Z,21.40
2022-10-26T12:42:31.892Z,21.40
2022-10-26T12:45:21.696Z,21.30
2022-10-26T12:48:38.887Z,21.20
2022-10-26T12:51:45.093Z,21.20
2022-10-26T12:54:44.982Z,21.20
2022-10-26T12:57:39.396Z,21.10
2022-10-26T13:00:29.103Z,21.10
2022-10-26T13:03:29.772Z,21.20
2022-10-26T13:06:38.647Z,21.40
2022-10-26T13:09:30.752Z,21.60
2022-10-26T13:12:18.400Z,21.60
2022-10-26T13:15:19.694Z,21.60
2022-10-26T13:18:11.968Z,21.50
2022-10-26T13:21:09.040Z,21.50
2022-10-26T13:24:05.556Z,21.50
2022-10-26T13:27:26.616Z,21.50
2022-10-26T13:30:37.037Z,21.50
2022-10-26T13:33:34.078Z,21.50
2022-10-26T13:36:32.810Z,21.60
2022-10-26T13:39:24.595Z,21.70
2022-10-26T13:42:17.154Z,21.90
2022-10-26T13:45:10.296Z,21.90
2022-10-26T13:48:06.121Z,22.10
2022-10-26T13:53:53.675Z,22.40
2022-10-26T13:56:49.738Z,22.30
2022-10-26T13:59:42.911Z,22.40
2022-10-26T14:02:31.534Z,22.50
2022-10-26T14:05:20.240Z,22.60
2022-10-26T14:08:07.771Z,22.70
2022-10-26T14:10:59.275Z,22.80
2022-10-26T14:13:48.181Z,22.90
2022-10-26T14:16:36.570Z,22.90
2022-10-26T14:19:27.317Z,22.90
2022-10-26T14:22:23.141Z,22.60
2022-10-26T14:25:26.726Z,22.40
2022-10-26T14:28:27.548Z,22.20
2022-10-26T14:31:22.041Z,22.20
2022-10-26T14:34:13.494Z,22.30
2022-10-26T14:37:04.309Z,22.40
2022-10-26T14:39:52.479Z,22.60
2022-10-26T14:42:44.765Z,22.80
2022-10-26T14:45:48.423Z,22.50
2022-10-26T14:48:37.294Z,21.80
2022-10-26T14:51:28.758Z,20.80
2022-10-26T14:54:25.024Z,20.00
2022-10-26T14:57:32.550Z,19.30
2022-10-26T15:00:22.865Z,18.60
2022-10-26T15:03:17.450Z,18.00
2022-10-26T15:06:47.251Z,17.50
2022-10-26T15:09:40.831Z,17.00
2022-10-26T15:12:32.733Z,16.60
2022-10-26T15:18:22.110Z,15.90
2022-10-26T15:21:24.045Z,15.60
2022-10-26T15:24:23.263Z,15.40
2022-10-26T15:27:14.764Z,15.10
2022-10-26T15:30:16.112Z,14.90
2022-10-26T15:33:22.385Z,14.60
2022-10-26T15:36:17.459Z,14.40
2022-10-26T15:39:05.453Z,14.10
2022-10-26T15:41:53.730Z,13.90
2022-10-26T15:44:41.412Z,13.70
2022-10-26T15:47:33.324Z,13.50
2022-10-26T15:50:24.510Z,13.30
2022-10-26T15:53:20.220Z,13.10
2022-10-26T15:56:15.910Z,12.90
2022-10-26T15:59:03.889Z,12.70
2022-10-26T16:01:52.982Z,12.60
2022-10-26T16:04:40.712Z,12.40
2022-10-26T16:07:29.743Z,12.30
2022-10-26T16:10:22.702Z,12.10
2022-10-26T16:13:14.055Z,12.00
2022-10-26T16:16:03.058Z,11.80
2022-10-26T16:19:06.088Z,11.70
2022-10-26T16:22:03.638Z,11.60
2022-10-26T16:24:52.915Z,11.40
2022-10-26T16:27:40.832Z,11.30
2022-10-26T16:30:31.293Z,11.20
2022-10-26T16:33:19.537Z,11.10
2022-10-26T16:36:08.453Z,11.00
2022-10-26T16:38:56.808Z,10.90
2022-10-26T16:41:45.665Z,10.80
2022-10-26T16:44:33.773Z,10.70
2022-10-26T16:50:14.812Z,10.50
2022-10-26T16:53:02.428Z,10.40
2022-10-26T16:55:50.234Z,10.30
2022-10-26T16:58:39.611Z,10.20
2022-10-26T17:01:27.696Z,10.10
2022-10-26T17:04:16.039Z,10.00
2022-10-26T17:07:03.837Z,9.90
2022-10-26T17:09:51.657Z,9.80
2022-10-26T17:12:39.369Z,9.70
2022-10-26T17:15:29.061Z,9.70
2022-10-26T17:18:17.569Z,9.60
2022-10-26T17:21:05.599Z,9.50
2022-10-26T17:23:53.196Z,9.40
2022-10-26T17:26:40.911Z,9.40
2022-10-26T17:29:29.140Z,9.30
2022-10-26T17:32:18.537Z,9.30
2022-10-26T17:35:07.576Z,9.20
2022-10-26T17:37:55.237Z,9.20
2022-10-26T17:40:43.250Z,9.10
2022-10-26T17:43:34.914Z,9.10
2022-10-26T17:46:24.490Z,9.00
2022-10-26T17:49:13.798Z,8.90
2022-10-26T17:52:01.742Z,8.90
2022-10-26T17:54:49.707Z,8.80
2022-10-26T17:57:37.541Z,8.70
2022-10-26T18:00:25.276Z,8.70
2022-10-26T18:03:13.213Z,8.60
2022-10-26T18:06:02.861Z,8.50
2022-10-26T18:08:50.751Z,8.50
2022-10-26T18:11:38.834Z,8.40
2022-10-26T18:14:26.620Z,8.40
2022-10-26T18:17:14.304Z,8.30
2022-10-26T18:20:01.941Z,8.30
2022-10-26T18:22:51.517Z,8.20
2022-10-26T18:25:39.583Z,8.20
2022-10-26T18:28:27.135Z,8.10
2022-10-26T18:31:17.190Z,8.10
2022-10-26T18:34:06.228Z,8.00
2022-10-26T18:36:55.311Z,8.00
2022-10-26T18:39:44.642Z,7.90
2022-10-26T18:42:32.247Z,7.80
2022-10-26T18:45:19.870Z,7.80
2022-10-26T18:48:07.732Z,7.70
2022-10-26T18:50:55.324Z,7.70
2022-10-26T18:53:44.644Z,7.60
2022-10-26T18:56:33.938Z,7.60
2022-10-26T18:59:21.520Z,7.60
2022-10-26T19:02:15.328Z,7.50
2022-10-26T19:05:03.352Z,7.50
2022-10-26T19:07:51.128Z,7.40
2022-10-26T19:10:38.710Z,7.40
2022-10-26T19:13:28.030Z,7.40
2022-10-26T19:16:33.574Z,7.30
2022-10-26T19:19:26.433Z,7.30
2022-10-26T19:22:14.329Z,7.20
2022-10-26T19:25:03.879Z,7.20
2022-10-26T19:27:55.526Z,7.10
2022-10-26T19:30:44.347Z,7.10
2022-10-26T19:33:32.238Z,7.00
2022-10-26T19:36:19.748Z,7.00
2022-10-26T19:39:07.896Z,6.90
2022-10-26T19:41:55.407Z,6.90
2022-10-26T19:44:43.284Z,6.90
2022-10-26T19:47:32.534Z,6.90
2022-10-26T19:50:20.173Z,6.80
2022-10-26T19:53:07.836Z,6.80
2022-10-26T19:55:58.257Z,6.80
2022-10-26T19:58:46.519Z,6.70
2022-10-26T20:01:35.019Z,6.70
2022-10-26T20:04:24.100Z,6.60
2022-10-26T20:07:12.066Z,6.60
2022-10-26T20:10:00.326Z,6.50
2022-10-26T20:12:48.341Z,6.50
2022-10-26T20:15:36.500Z,6.50
2022-10-26T20:18:24.047Z,6.40
2022-10-26T20:21:14.064Z,6.40
2022-10-26T20:24:02.477Z,6.40
2022-10-26T20:26:51.129Z,6.30
2022-10-26T20:29:39.983Z,6.30
2022-10-26T20:32:27.728Z,6.30
2022-10-26T20:35:15.230Z,6.30
2022-10-26T20:38:04.497Z,6.20
2022-10-26T20:40:54.856Z,6.20
2022-10-26T20:43:42.704Z,6.20
2022-10-26T20:46:30.253Z,6.10
2022-10-26T20:49:18.008Z,6.10
2022-10-26T20:52:22.312Z,6.00
2022-10-26T20:55:16.501Z,6.00
2022-10-26T20:58:06.798Z,6.00
2022-10-26T21:00:56.642Z,5.90
2022-10-26T21:03:44.200Z,5.90
2022-10-26T21:06:32.498Z,5.90
2022-10-26T21:09:22.141Z,5.80
2022-10-26T21:12:12.290Z,5.80
2022-10-26T21:14:59.763Z,5.80
2022-10-26T21:17:47.086Z,5.80
2022-10-26T21:20:34.767Z,5.70
2022-10-26T21:23:22.345Z,5.70
2022-10-26T21:26:10.009Z,5.70
2022-10-26T21:28:58.752Z,5.70
2022-10-26T21:31:46.036Z,5.70
2022-10-26T21:34:33.539Z,5.70
2022-10-26T21:37:20.572Z,5.70
2022-10-26T21:40:08.499Z,5.60
2022-10-26T21:42:55.900Z,5.60
2022-10-26T21:45:44.476Z,5.60
2022-10-26T21:48:32.753Z,5.60
2022-10-26T21:51:21.281Z,5.60
2022-10-26T21:54:08.585Z,5.50
2022-10-26T21:56:55.960Z,5.50
2022-10-26T21:59:43.216Z,5.50
2022-10-26T22:02:32.195Z,5.50
2022-10-26T22:05:20.023Z,5.50
2022-10-26T22:08:07.858Z,5.50
2022-10-26T22:10:55.292Z,5.50
2022-10-26T22:13:42.646Z,5.40
2022-10-26T22:16:30.796Z,5.50
2022-10-26T22:19:19.632Z,5.50
2022-10-26T22:22:06.765Z,5.50
2022-10-26T22:24:54.021Z,5.60
2022-10-26T22:27:41.313Z,5.60
2022-10-26T22:30:29.268Z,5.70
2022-10-26T22:33:16.414Z,5.70
2022-10-26T22:36:08.439Z,5.70
2022-10-26T22:38:56.269Z,5.80
2022-10-26T22:41:43.718Z,5.80
2022-10-26T22:44:30.858Z,5.80
2022-10-26T22:47:18.237Z,5.80
2022-10-26T22:50:05.922Z,5.80
2022-10-26T22:52:54.405Z,5.80
2022-10-26T22:55:42.163Z,5.90
2022-10-26T22:58:29.738Z,5.90
2022-10-26T23:01:18.349Z,6.00
2022-10-26T23:04:06.465Z,6.00
2022-10-26T23:06:54.412Z,6.00
2022-10-26T23:09:43.388Z,6.10
2022-10-26T23:12:30.931Z,6.20
2022-10-26T23:15:18.546Z,6.20
2022-10-26T23:18:06.235Z,6.30
2022-10-26T23:20:53.870Z,6.40
2022-10-26T23:23:42.395Z,6.50
2022-10-26T23:26:32.488Z,6.60
2022-10-26T23:29:20.205Z,6.70
2022-10-26T23:32:07.647Z,6.70
2022-10-26T23:34:55.504Z,6.80
2022-10-26T23:37:43.439Z,6.80
2022-10-26T23:40:31.138Z,6.90
2022-10-26T23:43:20.558Z,6.90
2022-10-26T23:46:08.707Z,6.90
2022-10-26T23:48:56.262Z,7.00
2022-10-26T23:51:43.976Z,7.00
2022-10-26T23:54:31.848Z,7.00
2022-10-26T23:57:19.617Z,7.10
